Time;durP1;ratioP1;P1;durP2;ratioP2;P2;SDS_P1;SDS_P2;PMS_P1;PMS_P2;Temp;Humidity;BMP_temperature;BMP_pressure;BME280_temperature;BME280_humidity;BME280_pressure;Samples;Min_cycle;Max_cycle;Signal;HPM_P1;HPM_P2
2024/01/16 00:00:59;;;;;;;3.45;2.35;;;-0.70;99.90;;;;;;5036717;28;20296;-78
2024/01/16 00:03:27;;;;;;;4.30;2.20;;;-0.70;99.90;;;;;;5023945;28;20642;-80
2024/01/16 00:05:54;;;;;;;2.75;1.33;;;-0.70;99.90;;;;;;5011817;28;20272;-79
2024/01/16 00:08:21;;;;;;;0.98;0.88;;;-0.70;99.90;;;;;;5010246;28;20238;-79
2024/01/16 00:10:48;;;;;;;3.10;1.75;;;-0.70;99.90;;;;;;5029269;28;20204;-80
2024/01/16 00:13:15;;;;;;;1.42;0.93;;;-0.70;99.90;;;;;;5012473;28;20268;-77
2024/01/16 00:15:42;;;;;;;1.80;1.40;;;-0.70;99.90;;;;;;5047662;28;20670;-78
2024/01/16 00:18:09;;;;;;;3.20;2.28;;;-0.70;99.90;;;;;;5001569;28;20368;-78
2024/01/16 00:20:38;;;;;;;3.25;1.35;;;-0.60;99.90;;;;;;5004313;28;20203;-77
2024/01/16 00:23:05;;;;;;;4.05;1.15;;;-0.70;99.90;;;;;;5021241;28;20318;-77
2024/01/16 00:25:32;;;;;;;1.58;1.05;;;-0.80;99.90;;;;;;4998865;28;20238;-78
2024/01/16 00:27:59;;;;;;;1.42;1.10;;;-0.70;99.90;;;;;;5007547;28;20259;-78
2024/01/16 00:30:25;;;;;;;1.50;1.40;;;-0.70;99.90;;;;;;5014342;28;20227;-78
2024/01/16 00:32:52;;;;;;;1.10;1.00;;;-0.70;99.90;;;;;;5004391;28;20472;-79
2024/01/16 00:35:19;;;;;;;4.20;1.45;;;-0.70;99.90;;;;;;4996434;28;20260;-78
2024/01/16 00:37:48;;;;;;;1.40;1.30;;;-0.70;99.90;;;;;;5006405;28;20235;-78
2024/01/16 00:40:15;;;;;;;1.60;1.20;;;-0.70;99.90;;;;;;5015592;28;20207;-78
2024/01/16 00:42:42;;;;;;;2.53;1.00;;;-0.80;99.90;;;;;;5003346;28;20736;-80
2024/01/16 00:45:09;;;;;;;1.60;1.10;;;-0.70;99.90;;;;;;4997987;28;20645;-78
2024/01/16 00:47:36;;;;;;;1.67;1.23;;;-0.70;99.90;;;;;;5010992;28;20265;-79
2024/01/16 00:50:03;;;;;;;4.30;2.00;;;-0.70;99.90;;;;;;5003992;28;20239;-79
2024/01/16 00:52:30;;;;;;;1.45;1.23;;;-0.70;99.90;;;;;;5003701;28;20721;-78
2024/01/16 00:54:58;;;;;;;3.00;1.05;;;-0.80;99.90;;;;;;5007943;28;20284;-78
2024/01/16 00:57:25;;;;;;;5.00;1.00;;;-0.70;99.90;;;;;;5011542;28;20259;-78
2024/01/16 00:59:52;;;;;;;2.45;1.23;;;-0.70;99.90;;;;;;5009161;28;20469;-78
2024/01/16 01:02:19;;;;;;;2.03;1.13;;;-0.70;99.90;;;;;;5026885;28;20233;-78
2024/01/16 01:04:46;;;;;;;1.33;0.98;;;-0.70;99.90;;;;;;5016336;28;20299;-78
2024/01/16 01:07:15;;;;;;;1.10;1.00;;;-0.70;99.90;;;;;;5026029;28;20244;-79
2024/01/16 01:09:42;;;;;;;2.17;0.98;;;-0.70;99.90;;;;;;5051799;28;20206;-79
2024/01/16 01:12:10;;;;;;;6.93;1.27;;;-0.60;99.90;;;;;;5012513;28;20206;-78
2024/01/16 01:14:37;;;;;;;2.50;1.25;;;-0.60;99.90;;;;;;5012920;28;20547;-78
2024/01/16 01:17:05;;;;;;;1.55;0.82;;;-0.60;99.90;;;;;;5005683;28;20574;-78
2024/01/16 01:19:32;;;;;;;3.65;1.27;;;-0.70;99.90;;;;;;5016721;28;20210;-79
2024/01/16 01:21:59;;;;;;;0.98;0.98;;;-0.60;99.90;;;;;;5002481;28;20221;-78
2024/01/16 01:24:26;;;;;;;2.10;0.85;;;-0.60;99.90;;;;;;5005163;28;20323;-78
2024/01/16 01:26:52;;;;;;;1.50;1.05;;;-0.60;99.90;;;;;;5048154;28;20310;-78
2024/01/16 01:29:21;;;;;;;4.57;0.97;;;-0.70;99.90;;;;;;5014150;28;20256;-78
2024/01/16 01:31:48;;;;;;;2.07;1.03;;;-0.60;99.90;;;;;;5007288;28;20512;-78
2024/01/16 01:34:16;;;;;;;1.00;0.80;;;-0.70;99.90;;;;;;5007696;28;20910;-78
2024/01/16 01:36:43;;;;;;;0.90;0.70;;;-0.70;99.90;;;;;;5020791;28;20896;-78
2024/01/16 01:39:11;;;;;;;2.50;1.25;;;-0.70;99.90;;;;;;5015630;28;20225;-79
2024/01/16 01:41:37;;;;;;;1.83;1.73;;;-0.60;99.90;;;;;;5015946;28;20282;-79
2024/01/16 01:44:04;;;;;;;1.25;0.82;;;-0.60;99.90;;;;;;5004757;28;20486;-79
2024/01/16 01:46:38;;;;;;;1.48;0.95;;;-0.70;99.90;;;;;;5017219;28;20286;-80
2024/01/16 01:49:05;;;;;;;1.38;0.70;;;-0.60;99.90;;;;;;5008143;28;20650;-78
2024/01/16 01:51:33;;;;;;;1.70;0.95;;;-0.70;99.90;;;;;;5000198;28;20254;-78
2024/01/16 01:54:01;;;;;;;1.48;1.13;;;-0.70;99.90;;;;;;5000073;28;20829;-80
2024/01/16 01:56:29;;;;;;;1.42;1.02;;;-0.70;99.90;;;;;;5015014;28;20230;-78
2024/01/16 01:58:58;;;;;;;3.03;1.05;;;-0.70;99.90;;;;;;4998475;28;20227;-80
2024/01/16 02:01:26;;;;;;;0.82;0.63;;;-0.70;99.90;;;;;;5001324;28;20199;-79
2024/01/16 02:03:56;;;;;;;1.45;0.85;;;-0.70;99.90;;;;;;5004078;28;20221;-78
2024/01/16 02:06:23;;;;;;;1.23;0.88;;;-0.80;99.90;;;;;;5008883;28;20296;-79
2024/01/16 02:08:50;;;;;;;2.27;1.73;;;-0.70;99.90;;;;;;5001106;28;20509;-78
2024/01/16 02:11:17;;;;;;;1.83;0.90;;;-0.70;99.90;;;;;;5003639;28;20989;-78
2024/01/16 02:13:45;;;;;;;1.07;0.70;;;-0.80;99.90;;;;;;5006055;28;20206;-79
2024/01/16 02:16:22;;;;;;;0.90;0.60;;;-0.70;99.90;;;;;;5013556;28;20476;-78
2024/01/16 02:18:49;;;;;;;1.30;0.73;;;-0.70;99.90;;;;;;5012380;28;20876;-78
2024/01/16 02:21:21;;;;;;;2.15;1.17;;;-0.70;99.90;;;;;;5005438;28;20639;-78
2024/01/16 02:23:49;;;;;;;2.22;0.70;;;-0.70;99.90;;;;;;5004304;28;20300;-77
2024/01/16 02:26:18;;;;;;;0.83;0.70;;;-0.80;99.90;;;;;;5005521;28;20203;-79
2024/01/16 02:28:45;;;;;;;1.03;0.70;;;-0.70;99.90;;;;;;5003858;28;21023;-78
2024/01/16 02:31:12;;;;;;;1.15;1.08;;;-0.70;99.90;;;;;;5008330;28;20455;-80
2024/01/16 02:33:39;;;;;;;1.88;0.95;;;-0.70;99.90;;;;;;5009713;28;20241;-77
2024/01/16 02:36:06;;;;;;;0.80;0.68;;;-0.70;99.90;;;;;;5020734;28;20266;-79
2024/01/16 02:38:34;;;;;;;0.95;0.70;;;-0.70;99.90;;;;;;5022605;28;20227;-78
2024/01/16 02:41:02;;;;;;;0.90;0.60;;;-0.70;99.90;;;;;;5026061;28;20219;-78
2024/01/16 02:43:29;;;;;;;1.73;0.80;;;-0.70;99.90;;;;;;5007415;28;20311;-79
2024/01/16 02:45:56;;;;;;;0.70;0.50;;;-0.70;99.90;;;;;;4999175;28;20207;-78
2024/01/16 02:48:23;;;;;;;3.47;0.80;;;-0.70;99.90;;;;;;4998160;28;20728;-79
2024/01/16 02:50:50;;;;;;;2.45;0.80;;;-0.70;99.90;;;;;;5008197;28;20281;-78
2024/01/16 02:53:16;;;;;;;0.70;0.50;;;-0.70;99.90;;;;;;5006146;28;20203;-78
2024/01/16 02:55:43;;;;;;;1.25;0.60;;;-0.70;99.90;;;;;;5020349;28;20956;-79
2024/01/16 02:58:12;;;;;;;1.00;0.90;;;-0.70;99.90;;;;;;5014514;28;20242;-79
2024/01/16 03:00:39;;;;;;;2.58;0.85;;;-0.70;99.90;;;;;;5023214;28;20714;-78
2024/01/16 03:03:06;;;;;;;0.63;0.63;;;-0.70;99.90;;;;;;5015572;28;20266;-78
2024/01/16 03:05:33;;;;;;;1.15;0.70;;;-0.70;99.90;;;;;;5012059;28;20234;-79
2024/01/16 03:08:00;;;;;;;2.13;0.93;;;-0.70;99.90;;;;;;5006520;28;20826;-79
2024/01/16 03:10:27;;;;;;;0.98;0.70;;;-0.70;99.90;;;;;;5018052;28;20549;-78
2024/01/16 03:12:54;;;;;;;3.15;0.95;;;-0.80;99.90;;;;;;5005874;28;20885;-78
2024/01/16 03:15:22;;;;;;;1.70;0.90;;;-0.80;99.90;;;;;;5018523;28;20211;-80
2024/01/16 03:17:50;;;;;;;0.85;0.60;;;-0.80;99.90;;;;;;4996338;28;20517;-78
2024/01/16 03:20:17;;;;;;;1.63;1.30;;;-0.80;99.90;;;;;;5005502;28;20232;-79
2024/01/16 03:22:45;;;;;;;2.95;0.60;;;-0.80;99.90;;;;;;5020167;28;20463;-78
2024/01/16 03:25:12;;;;;;;2.20;0.90;;;-0.80;99.90;;;;;;5008733;28;20325;-78
2024/01/16 03:27:39;;;;;;;0.50;0.50;;;-0.80;99.90;;;;;;5011710;28;20294;-78
2024/01/16 03:30:08;;;;;;;1.85;1.00;;;-0.80;99.90;;;;;;5022629;28;20756;-78
2024/01/16 03:32:36;;;;;;;1.35;0.60;;;-0.70;99.90;;;;;;5032125;28;20603;-78
2024/01/16 03:35:03;;;;;;;0.90;0.75;;;-0.80;99.90;;;;;;5011145;28;20230;-79
2024/01/16 03:37:30;;;;;;;1.45;0.70;;;-0.80;99.90;;;;;;5019536;28;20234;-80
2024/01/16 03:39:57;;;;;;;0.80;0.80;;;-0.80;99.90;;;;;;5004120;28;20243;-79
2024/01/16 03:42:25;;;;;;;2.03;0.90;;;-0.80;99.90;;;;;;5007322;28;20538;-79
2024/01/16 03:44:52;;;;;;;1.70;1.00;;;-0.80;99.90;;;;;;5011790;28;20540;-79
2024/01/16 03:47:19;;;;;;;2.28;0.70;;;-0.80;99.90;;;;;;5004724;28;20453;-78
2024/01/16 03:49:48;;;;;;;3.08;1.60;;;-0.90;99.90;;;;;;5017346;28;20255;-79
2024/01/16 03:52:15;;;;;;;0.50;0.40;;;-0.80;99.90;;;;;;5015554;28;20216;-79
2024/01/16 03:54:42;;;;;;;0.93;0.70;;;-0.80;99.90;;;;;;5007414;28;20455;-81
2024/01/16 03:57:09;;;;;;;1.77;1.15;;;-0.90;99.90;;;;;;5008086;28;20203;-79
2024/01/16 03:59:38;;;;;;;1.00;0.90;;;-0.80;99.90;;;;;;5012763;28;20297;-79
2024/01/16 04:02:05;;;;;;;0.60;0.50;;;-0.90;99.90;;;;;;5003424;28;20572;-78
2024/01/16 04:04:32;;;;;;;1.40;0.80;;;-0.80;99.90;;;;;;5008996;28;20227;-78
2024/01/16 04:07:01;;;;;;;1.58;0.80;;;-0.80;99.90;;;;;;5006096;28;20658;-78
2024/01/16 04:09:28;;;;;;;0.60;0.50;;;-0.80;99.90;;;;;;5011886;28;20230;-80
2024/01/16 04:11:55;;;;;;;0.82;0.52;;;-0.80;99.90;;;;;;4998745;28;20241;-78
2024/01/16 04:14:22;;;;;;;1.30;0.65;;;-0.80;99.90;;;;;;5030590;28;20238;-78
2024/01/16 04:16:49;;;;;;;2.20;0.50;;;-0.80;99.90;;;;;;5009981;28;20505;-78
2024/01/16 04:19:16;;;;;;;1.02;0.60;;;-0.80;99.90;;;;;;5006866;28;20203;-78
2024/01/16 04:21:43;;;;;;;0.80;0.50;;;-0.80;99.90;;;;;;5009466;28;20235;-78
2024/01/16 04:24:11;;;;;;;1.33;0.60;;;-0.80;99.90;;;;;;5009692;28;20288;-78
2024/01/16 04:26:38;;;;;;;1.38;0.80;;;-0.80;99.90;;;;;;5015514;28;20207;-80
2024/01/16 04:29:05;;;;;;;0.60;0.40;;;-0.80;99.90;;;;;;5009595;28;20235;-78
2024/01/16 04:31:34;;;;;;;2.15;0.47;;;-0.90;99.80;;;;;;5009215;28;20199;-78
2024/01/16 04:34:01;;;;;;;1.23;0.50;;;-0.90;99.80;;;;;;5004481;28;20679;-79
2024/01/16 04:36:27;;;;;;;1.23;0.50;;;-0.90;99.50;;;;;;5013554;28;20266;-78
2024/01/16 04:38:54;;;;;;;1.35;0.68;;;-0.90;99.20;;;;;;5003382;28;20232;-80
2024/01/16 04:41:23;;;;;;;1.38;0.80;;;-0.90;99.40;;;;;;5011598;28;20206;-78
2024/01/16 04:43:50;;;;;;;0.45;0.38;;;-0.90;99.30;;;;;;5005603;28;20226;-78
2024/01/16 04:46:17;;;;;;;0.50;0.50;;;-0.90;98.90;;;;;;5001227;28;20717;-79
2024/01/16 04:48:47;;;;;;;0.50;0.40;;;-0.90;99.00;;;;;;5032600;28;20238;-79
2024/01/16 04:51:13;;;;;;;0.73;0.50;;;-0.80;98.50;;;;;;5040276;28;20819;-79
2024/01/16 04:53:41;;;;;;;1.00;0.57;;;-0.80;99.10;;;;;;5008535;28;20235;-78
2024/01/16 04:56:08;;;;;;;2.97;0.50;;;-0.90;99.20;;;;;;5027193;28;20313;-78
2024/01/16 04:58:36;;;;;;;1.27;0.70;;;-0.80;99.20;;;;;;5072559;28;20290;-78
2024/01/16 05:01:03;;;;;;;0.90;0.60;;;-0.80;98.60;;;;;;5031142;28;20618;-78
2024/01/16 05:03:30;;;;;;;1.83;0.82;;;-0.80;98.60;;;;;;5057818;28;20670;-79
2024/01/16 05:05:57;;;;;;;3.67;0.85;;;-0.80;98.20;;;;;;5072036;28;20272;-77
2024/01/16 05:08:24;;;;;;;1.13;0.60;;;-0.70;97.80;;;;;;5006654;28;20199;-77
2024/01/16 05:10:51;;;;;;;0.82;0.60;;;-0.80;97.90;;;;;;5078222;28;20216;-78
2024/01/16 05:13:18;;;;;;;0.68;0.35;;;-0.80;97.60;;;;;;5020190;28;20206;-78
2024/01/16 05:15:46;;;;;;;1.08;0.50;;;-0.80;98.20;;;;;;5014859;28;20198;-79
2024/01/16 05:18:13;;;;;;;0.70;0.50;;;-0.80;97.80;;;;;;5002807;28;20644;-79
2024/01/16 05:20:40;;;;;;;0.70;0.68;;;-0.80;98.00;;;;;;5035511;28;20281;-81
2024/01/16 05:23:07;;;;;;;1.13;0.43;;;-0.80;97.50;;;;;;5055943;28;20196;-77
2024/01/16 05:25:34;;;;;;;1.00;0.63;;;-0.80;97.70;;;;;;5048935;28;20324;-79
2024/01/16 05:28:01;;;;;;;1.40;0.70;;;-0.80;97.80;;;;;;5070317;28;20714;-78
2024/01/16 05:30:28;;;;;;;1.50;0.40;;;-0.80;97.50;;;;;;5065219;28;20293;-78
2024/01/16 05:33:00;;;;;;;0.93;0.50;;;-0.80;96.70;;;;;;5026003;28;20863;-78
2024/01/16 05:35:27;;;;;;;1.67;0.73;;;-0.70;96.80;;;;;;5066602;28;20207;-77
2024/01/16 05:37:55;;;;;;;1.00;0.80;;;-0.70;96.30;;;;;;5023573;28;20502;-79
2024/01/16 05:40:22;;;;;;;1.75;0.85;;;-0.70;95.90;;;;;;5006219;28;20240;-77
2024/01/16 05:42:49;;;;;;;0.80;0.60;;;-0.70;96.10;;;;;;5018821;28;20325;-77
2024/01/16 05:45:16;;;;;;;2.93;0.73;;;-0.70;96.00;;;;;;5017987;28;20290;-77
2024/01/16 05:47:43;;;;;;;1.63;0.50;;;-0.70;96.40;;;;;;5036349;28;20463;-74
2024/01/16 05:50:12;;;;;;;1.07;0.50;;;-0.70;96.00;;;;;;5009785;28;20204;-78
2024/01/16 05:52:40;;;;;;;1.35;0.50;;;-0.70;96.00;;;;;;5005567;28;20486;-79
2024/01/16 05:55:08;;;;;;;1.65;0.77;;;-0.70;95.90;;;;;;5020881;28;20486;-79
2024/01/16 05:57:35;;;;;;;2.25;0.95;;;-0.70;96.10;;;;;;5021234;28;20195;-77
2024/01/16 06:00:03;;;;;;;2.03;1.10;;;-0.70;96.40;;;;;;5062389;28;20280;-79
2024/01/16 06:02:30;;;;;;;2.55;0.70;;;-0.70;96.60;;;;;;5015241;28;20265;-77
2024/01/16 06:04:57;;;;;;;1.97;0.83;;;-0.80;97.00;;;;;;5043407;28;20758;-79
2024/01/16 06:07:25;;;;;;;1.10;0.98;;;-0.70;96.60;;;;;;4999529;28;20473;-77
2024/01/16 06:09:52;;;;;;;0.68;0.50;;;-0.80;97.40;;;;;;5007785;28;20226;-77
2024/01/16 06:12:19;;;;;;;0.90;0.80;;;-0.80;96.50;;;;;;5008549;28;20571;-78
2024/01/16 06:14:46;;;;;;;1.58;0.80;;;-0.70;96.60;;;;;;5009314;28;20476;-78
2024/01/16 06:17:13;;;;;;;0.95;0.43;;;-0.70;96.80;;;;;;5000730;28;20731;-76
2024/01/16 06:19:40;;;;;;;0.70;0.50;;;-0.70;95.90;;;;;;5017233;28;20235;-78
2024/01/16 06:22:08;;;;;;;0.90;0.50;;;-0.70;95.50;;;;;;5014412;28;20257;-77
2024/01/16 06:24:37;;;;;;;0.70;0.40;;;-0.70;95.60;;;;;;5018907;28;20231;-77
2024/01/16 06:27:06;;;;;;;2.27;0.50;;;-0.70;95.10;;;;;;5006630;28;20537;-79
2024/01/16 06:29:33;;;;;;;0.90;0.50;;;-0.70;95.10;;;;;;5009752;28;20465;-77
2024/01/16 06:32:00;;;;;;;0.53;0.40;;;-0.70;95.60;;;;;;5016906;28;20256;-79
2024/01/16 06:34:26;;;;;;;1.95;0.30;;;-0.70;95.40;;;;;;5022804;28;20504;-82
2024/01/16 06:36:53;;;;;;;0.70;0.40;;;-0.70;94.50;;;;;;5006113;28;20570;-78
2024/01/16 06:39:20;;;;;;;0.50;0.40;;;-0.70;93.80;;;;;;5020369;28;20252;-76
2024/01/16 06:41:49;;;;;;;1.05;0.47;;;-0.70;94.10;;;;;;5017961;28;21217;-77
2024/01/16 06:44:16;;;;;;;0.50;0.40;;;-0.70;94.30;;;;;;5010448;28;20203;-78
2024/01/16 06:46:43;;;;;;;0.50;0.40;;;-0.80;95.20;;;;;;5008640;28;20205;-78
2024/01/16 06:49:10;;;;;;;2.33;0.57;;;-0.80;94.30;;;;;;5010306;28;20231;-77
2024/01/16 06:51:37;;;;;;;0.65;0.60;;;-0.80;94.00;;;;;;5011746;28;20195;-80
2024/01/16 06:54:04;;;;;;;0.60;0.50;;;-0.90;94.40;;;;;;5045744;28;20199;-77
2024/01/16 06:56:31;;;;;;;0.70;0.50;;;-0.90;94.40;;;;;;5058581;28;20539;-76
2024/01/16 06:58:59;;;;;;;1.55;0.50;;;-0.90;94.60;;;;;;5052761;28;20804;-77
2024/01/16 07:01:27;;;;;;;3.28;0.40;;;-0.90;94.20;;;;;;5056987;28;20272;-80
2024/01/16 07:03:54;;;;;;;0.85;0.40;;;-0.90;94.80;;;;;;5043206;28;20211;-80
2024/01/16 07:06:21;;;;;;;1.30;0.40;;;-0.90;94.80;;;;;;5011883;28;20258;-77
2024/01/16 07:08:48;;;;;;;1.25;0.50;;;-0.80;94.60;;;;;;5022035;28;20209;-80
2024/01/16 07:11:15;;;;;;;0.60;0.40;;;-0.80;94.90;;;;;;5010012;28;20230;-80
2024/01/16 07:13:42;;;;;;;1.23;0.70;;;-0.80;95.40;;;;;;5039422;28;20469;-81
2024/01/16 07:16:12;;;;;;;2.58;1.73;;;-0.80;94.70;;;;;;5019947;28;20450;-77
2024/01/16 07:18:39;;;;;;;4.25;2.88;;;-0.70;94.80;;;;;;5018963;28;20238;-78
2024/01/16 07:21:17;;;;;;;3.83;3.28;;;-0.80;94.90;;;;;;5021863;28;20356;-78
2024/01/16 07:23:44;;;;;;;8.77;8.03;;;-0.70;95.00;;;;;;5037158;28;20202;-78
2024/01/16 07:26:11;;;;;;;9.73;8.90;;;-0.70;95.30;;;;;;5074402;28;20600;-77
2024/01/16 07:28:38;;;;;;;9.48;8.88;;;-0.80;95.50;;;;;;5014406;28;20208;-78
2024/01/16 07:31:06;;;;;;;6.78;4.88;;;-0.80;95.70;;;;;;5066312;28;20207;-79
2024/01/16 07:33:34;;;;;;;1.02;0.90;;;-0.70;95.50;;;;;;5087587;28;20279;-78
2024/01/16 07:36:01;;;;;;;4.32;2.88;;;-0.70;95.50;;;;;;5059796;28;20262;-77
2024/01/16 07:38:28;;;;;;;3.60;2.33;;;-0.70;95.40;;;;;;5017817;28;20207;-78
2024/01/16 07:40:56;;;;;;;1.88;1.73;;;-0.60;95.70;;;;;;5002593;28;20211;-78
2024/01/16 07:43:23;;;;;;;3.43;0.80;;;-0.50;95.50;;;;;;5038442;28;20215;-81
2024/01/16 07:45:50;;;;;;;0.80;0.60;;;-0.40;95.30;;;;;;5039724;28;20537;-78
2024/01/16 07:48:17;;;;;;;0.75;0.50;;;-0.40;95.40;;;;;;5050429;28;20510;-78
2024/01/16 07:50:46;;;;;;;0.93;0.75;;;-0.30;94.80;;;;;;5000971;28;20320;-80
2024/01/16 07:53:13;;;;;;;1.00;0.50;;;-0.30;95.00;;;;;;5031474;28;20289;-79
2024/01/16 07:55:40;;;;;;;1.53;0.60;;;-0.20;95.00;;;;;;5018482;28;20239;-79
2024/01/16 07:58:07;;;;;;;2.13;0.53;;;-0.20;95.10;;;;;;5035817;28;20446;-79
2024/01/16 08:00:34;;;;;;;0.60;0.50;;;-0.10;94.70;;;;;;5031284;28;20490;-78
2024/01/16 08:03:00;;;;;;;1.53;0.67;;;-0.20;94.80;;;;;;5039226;28;20783;-77
2024/01/16 08:05:30;;;;;;;0.87;0.43;;;-0.20;94.90;;;;;;5038623;28;20478;-81
2024/01/16 08:07:58;;;;;;;1.17;0.60;;;-0.30;94.60;;;;;;5025971;28;20581;-81
2024/01/16 08:10:25;;;;;;;3.27;0.83;;;-0.30;95.00;;;;;;5038045;28;20207;-78
2024/01/16 08:12:52;;;;;;;1.40;0.60;;;-0.30;94.70;;;;;;5074419;27;20538;-78
2024/01/16 08:15:19;;;;;;;1.50;0.90;;;-0.20;94.60;;;;;;5028584;28;20485;-76
2024/01/16 08:17:46;;;;;;;2.97;0.85;;;-0.20;94.50;;;;;;5004668;28;20906;-81
2024/01/16 08:20:13;;;;;;;0.80;0.60;;;-0.10;94.10;;;;;;4998526;28;20204;-77
2024/01/16 08:22:41;;;;;;;0.67;0.60;;;-0.10;93.50;;;;;;5014310;28;20986;-79
2024/01/16 08:25:09;;;;;;;0.60;0.40;;;0.00;94.00;;;;;;5019442;28;20485;-78
2024/01/16 08:27:37;;;;;;;0.70;0.50;;;0.00;93.20;;;;;;5014693;28;20527;-77
2024/01/16 08:30:05;;;;;;;1.30;0.60;;;0.00;93.50;;;;;;5035571;28;20568;-78
2024/01/16 08:32:32;;;;;;;0.60;0.53;;;0.10;93.70;;;;;;5039449;28;20501;-77
2024/01/16 08:34:59;;;;;;;0.70;0.50;;;0.10;93.30;;;;;;5058861;28;20511;-77
2024/01/16 08:37:26;;;;;;;0.40;0.30;;;0.10;93.40;;;;;;5014855;28;20460;-77
2024/01/16 08:39:53;;;;;;;0.87;0.60;;;0.20;93.00;;;;;;5026456;28;20545;-77
2024/01/16 08:42:21;;;;;;;2.87;1.30;;;0.30;93.60;;;;;;5075079;28;20530;-78
2024/01/16 08:44:48;;;;;;;0.90;0.80;;;0.30;92.70;;;;;;5042714;28;20478;-77
2024/01/16 08:47:15;;;;;;;0.60;0.40;;;0.30;93.10;;;;;;5048696;28;20806;-77
2024/01/16 08:49:43;;;;;;;3.27;0.47;;;0.30;92.60;;;;;;5046336;28;20450;-77
2024/01/16 08:52:10;;;;;;;1.27;0.60;;;0.30;92.50;;;;;;5027624;28;20453;-76
2024/01/16 08:54:37;;;;;;;0.73;0.60;;;0.20;91.90;;;;;;5019669;28;20545;-76
2024/01/16 08:57:05;;;;;;;1.40;0.50;;;0.30;92.70;;;;;;5013536;28;20519;-78
2024/01/16 08:59:33;;;;;;;0.50;0.40;;;0.40;92.60;;;;;;5015059;28;20471;-77
2024/01/16 09:02:00;;;;;;;1.23;0.50;;;0.50;92.70;;;;;;5013120;28;21053;-78
2024/01/16 09:04:27;;;;;;;0.60;0.40;;;0.60;91.90;;;;;;5009024;28;20507;-77
2024/01/16 09:06:54;;;;;;;0.93;0.50;;;0.80;91.80;;;;;;5040626;28;21264;-79
2024/01/16 09:09:21;;;;;;;0.50;0.40;;;0.80;90.40;;;;;;5015535;28;20510;-79
2024/01/16 09:11:48;;;;;;;0.50;0.30;;;0.90;90.50;;;;;;5023588;28;20470;-78
2024/01/16 09:14:15;;;;;;;6.70;1.03;;;0.90;90.50;;;;;;5023415;28;20539;-78
2024/01/16 09:16:43;;;;;;;0.50;0.40;;;0.90;91.40;;;;;;5016014;28;20509;-77
2024/01/16 09:19:10;;;;;;;0.53;0.40;;;0.90;90.50;;;;;;5001121;28;20536;-79
2024/01/16 09:21:37;;;;;;;2.47;0.60;;;0.90;90.50;;;;;;5030182;28;20493;-77
2024/01/16 09:24:05;;;;;;;0.70;0.50;;;0.90;90.30;;;;;;5005320;28;20474;-78
2024/01/16 09:26:32;;;;;;;0.90;0.27;;;0.90;88.70;;;;;;5012472;28;20585;-80
2024/01/16 09:28:59;;;;;;;1.60;0.80;;;1.00;88.50;;;;;;5021940;28;20475;-78
2024/01/16 09:31:26;;;;;;;0.93;0.40;;;1.00;90.50;;;;;;5003970;28;20549;-78
2024/01/16 09:33:55;;;;;;;2.17;0.60;;;1.00;87.90;;;;;;5005054;28;20443;-79
2024/01/16 09:36:22;;;;;;;0.60;0.40;;;1.10;87.90;;;;;;5022485;28;20450;-80
2024/01/16 09:38:49;;;;;;;0.50;0.40;;;1.30;88.70;;;;;;5010416;28;20450;-78
2024/01/16 09:41:16;;;;;;;1.40;0.47;;;1.20;86.20;;;;;;5011968;28;20481;-78
2024/01/16 09:43:43;;;;;;;3.37;0.40;;;1.30;86.70;;;;;;5009201;28;20454;-80
2024/01/16 09:46:13;;;;;;;0.53;0.47;;;1.40;87.60;;;;;;5042487;28;20518;-79
2024/01/16 09:48:41;;;;;;;1.13;0.50;;;1.40;85.70;;;;;;5033879;28;20434;-78
2024/01/16 09:51:09;;;;;;;1.43;0.50;;;1.50;86.30;;;;;;5037620;28;20522;-79
2024/01/16 09:53:36;;;;;;;0.60;0.60;;;1.40;85.50;;;;;;5070741;28;20449;-78
2024/01/16 09:56:05;;;;;;;0.83;0.50;;;1.40;86.90;;;;;;5038273;28;20498;-78
2024/01/16 09:58:37;;;;;;;0.73;0.40;;;1.40;85.60;;;;;;5045082;28;20467;-78
2024/01/16 10:01:05;;;;;;;0.77;0.50;;;1.30;85.90;;;;;;5016489;28;20531;-79
2024/01/16 10:03:35;;;;;;;4.43;0.40;;;1.50;85.90;;;;;;5016333;28;20518;-80
2024/01/16 10:06:05;;;;;;;1.93;0.70;;;1.40;82.80;;;;;;5018295;28;20482;-79
2024/01/16 10:08:34;;;;;;;3.10;0.40;;;1.60;85.70;;;;;;5015165;28;20454;-78
2024/01/16 10:11:01;;;;;;;0.60;0.60;;;1.80;82.10;;;;;;5015847;28;21154;-80
2024/01/16 10:13:28;;;;;;;1.50;0.60;;;1.70;81.20;;;;;;5038681;28;20445;-80
2024/01/16 10:15:56;;;;;;;1.83;0.70;;;1.70;80.80;;;;;;5012779;28;20473;-79
2024/01/16 10:18:25;;;;;;;0.73;0.40;;;1.80;79.50;;;;;;5007505;28;20492;-79
2024/01/16 10:20:53;;;;;;;1.60;0.50;;;1.90;79.60;;;;;;5031277;28;20549;-78
2024/01/16 10:23:24;;;;;;;3.97;0.70;;;1.90;78.90;;;;;;5055431;28;20442;-79
2024/01/16 10:28:46;;;;;;;0.40;0.30;;;2.10;81.00;;;;;;5099613;27;20527;-78
2024/01/16 10:31:15;;;;;;;2.23;0.67;;;1.90;78.60;;;;;;5078271;28;20530;-77
2024/01/16 10:33:42;;;;;;;0.47;0.40;;;1.80;78.80;;;;;;5072124;28;20558;-79
2024/01/16 10:36:11;;;;;;;2.30;0.50;;;1.90;81.40;;;;;;5076302;28;20443;-78
2024/01/16 10:38:39;;;;;;;0.60;0.40;;;1.90;79.80;;;;;;5066945;28;20527;-78
2024/01/16 10:41:10;;;;;;;0.70;0.50;;;1.90;78.60;;;;;;5077039;28;20828;-79
2024/01/16 10:43:38;;;;;;;0.63;0.40;;;1.80;77.40;;;;;;5067948;28;21026;-80
2024/01/16 10:46:11;;;;;;;0.40;0.30;;;2.00;82.20;;;;;;5074646;28;21035;-77
2024/01/16 10:48:39;;;;;;;1.37;0.40;;;1.90;82.00;;;;;;5080765;28;20481;-78
2024/01/16 10:51:08;;;;;;;1.70;0.30;;;2.00;84.30;;;;;;5080976;28;20790;-78
2024/01/16 10:53:36;;;;;;;0.50;0.30;;;2.20;83.50;;;;;;5073237;28;20479;-81
2024/01/16 10:56:06;;;;;;;0.50;0.43;;;2.10;80.30;;;;;;5079299;28;20478;-78
2024/01/16 10:58:33;;;;;;;1.77;1.17;;;2.30;80.00;;;;;;5080013;28;20516;-79
2024/01/16 11:01:04;;;;;;;1.60;0.50;;;2.20;78.90;;;;;;5069766;28;20513;-78
2024/01/16 11:03:39;;;;;;;3.10;1.13;;;2.30;81.00;;;;;;5064596;28;20543;-78
2024/01/16 11:06:08;;;;;;;3.50;1.63;;;2.30;79.00;;;;;;5070453;28;20946;-77
2024/01/16 11:08:37;;;;;;;1.27;0.60;;;2.40;78.70;;;;;;5079890;28;20562;-79
2024/01/16 11:11:05;;;;;;;1.60;0.67;;;2.30;77.10;;;;;;5077587;28;20520;-77
2024/01/16 11:13:34;;;;;;;1.80;1.00;;;2.30;75.40;;;;;;5081300;28;20984;-78
2024/01/16 11:16:03;;;;;;;3.90;1.30;;;2.50;77.30;;;;;;5082062;28;20444;-77
2024/01/16 11:18:32;;;;;;;3.27;1.43;;;2.70;77.10;;;;;;5082976;28;20430;-78
2024/01/16 11:21:02;;;;;;;6.70;3.07;;;2.90;75.50;;;;;;5080392;28;20903;-80
2024/01/16 11:23:29;;;;;;;4.40;2.00;;;2.90;72.80;;;;;;5082246;28;20431;-77
2024/01/16 11:25:56;;;;;;;2.80;1.30;;;2.90;75.50;;;;;;5069928;28;20682;-77
2024/01/16 11:28:29;;;;;;;1.13;0.90;;;2.90;76.10;;;;;;5072073;28;20513;-79
2024/01/16 11:30:56;;;;;;;0.90;0.63;;;2.80;71.60;;;;;;5075083;28;20474;-78
2024/01/16 11:33:45;;;;;;;4.40;0.90;;;2.50;72.50;;;;;;5074979;28;20444;-78
2024/01/16 11:36:47;;;;;;;2.63;0.60;;;2.40;73.60;;;;;;5076573;28;20458;-78
2024/01/16 11:39:19;;;;;;;1.70;0.87;;;2.40;73.70;;;;;;5075778;28;20536;-78
2024/01/16 11:41:51;;;;;;;1.00;0.70;;;2.50;76.40;;;;;;5065762;28;20530;-79
2024/01/16 11:44:42;;;;;;;1.30;0.90;;;2.50;74.40;;;;;;5065258;28;20455;-78
2024/01/16 11:47:10;;;;;;;1.00;0.50;;;2.50;73.60;;;;;;5057234;28;20480;-79
2024/01/16 11:49:37;;;;;;;1.33;0.70;;;2.50;76.30;;;;;;5055125;28;21004;-79
2024/01/16 11:52:06;;;;;;;2.33;0.87;;;2.60;75.80;;;;;;5064484;28;20472;-78
2024/01/16 11:54:34;;;;;;;0.80;0.60;;;2.80;78.80;;;;;;5064057;28;21103;-79
2024/01/16 11:57:31;;;;;;;2.30;0.67;;;2.90;71.50;;;;;;5052948;28;20998;-80
2024/01/16 12:00:07;;;;;;;1.43;0.50;;;2.90;70.80;;;;;;5059356;28;20502;-78
2024/01/16 12:02:49;;;;;;;1.33;0.60;;;2.80;73.10;;;;;;5064115;28;20483;-78
2024/01/16 12:05:15;;;;;;;1.33;0.53;;;2.90;69.70;;;;;;5062591;28;20945;-78
2024/01/16 12:07:50;;;;;;;0.90;0.60;;;2.80;68.80;;;;;;5062611;28;20479;-80
2024/01/16 12:10:17;;;;;;;0.83;0.53;;;2.90;69.80;;;;;;5066846;28;20447;-78
2024/01/16 12:12:45;;;;;;;3.43;0.70;;;2.70;67.90;;;;;;5065686;28;20534;-77
2024/01/16 12:15:17;;;;;;;1.87;0.70;;;2.70;67.70;;;;;;5060595;28;20924;-78
2024/01/16 12:17:59;;;;;;;1.80;0.60;;;2.70;67.20;;;;;;5067641;28;21045;-80
2024/01/16 12:20:28;;;;;;;0.90;0.73;;;2.60;66.70;;;;;;5061318;28;20506;-79
2024/01/16 12:23:01;;;;;;;4.87;0.77;;;2.60;68.60;;;;;;5062254;28;20483;-81
2024/01/16 12:25:31;;;;;;;2.50;1.10;;;2.70;70.80;;;;;;5052220;28;20491;-79
2024/01/16 12:27:59;;;;;;;0.83;0.70;;;2.60;70.80;;;;;;5061209;28;21063;-78
2024/01/16 12:30:28;;;;;;;1.60;0.40;;;2.80;72.80;;;;;;5059782;28;20440;-78
2024/01/16 12:33:05;;;;;;;1.87;0.60;;;2.80;66.60;;;;;;5065664;28;20487;-79
2024/01/16 12:35:32;;;;;;;0.90;0.43;;;2.60;64.60;;;;;;5051643;28;20445;-78
2024/01/16 12:38:02;;;;;;;2.97;0.50;;;2.60;63.80;;;;;;5068375;28;20439;-78
2024/01/16 12:40:30;;;;;;;1.20;0.70;;;2.70;65.00;;;;;;5065154;28;20452;-78
2024/01/16 12:42:57;;;;;;;3.43;1.77;;;2.70;65.80;;;;;;5060193;28;20497;-80
2024/01/16 12:45:24;;;;;;;2.83;1.00;;;2.70;65.00;;;;;;5051149;28;20527;-78
2024/01/16 12:47:54;;;;;;;5.30;2.97;;;2.70;66.30;;;;;;5053616;28;20872;-78
2024/01/16 12:50:22;;;;;;;1.07;0.60;;;2.70;65.80;;;;;;5051775;28;20532;-79
2024/01/16 12:52:50;;;;;;;0.70;0.43;;;2.60;64.80;;;;;;5064733;28;20545;-77
2024/01/16 12:55:19;;;;;;;2.47;1.20;;;2.70;66.40;;;;;;5059850;28;20569;-77
2024/01/16 12:57:46;;;;;;;1.20;0.60;;;2.60;64.10;;;;;;5066094;28;20542;-79